»·PEaware :: 7T-VNJ KSAN-KBFL

7T-VNJ :: KSAN-KBFL

FLIGHT INFORMATION

Flight Status: Arrived
Operator: Privately registered:
Algeria
More flights under this callsign
Pilot: Zakaria R. (17375)
Aircraft: CESSNA 172 SKYHAWK
(C172)
More flights by this aircraft type
Origin: KSAN San Diego Intl-Lindbergh
United States
Destination: KBFL Meadows
United States
More flights between these airports :: More routes between these airports
Route: +OCN V23 SLI V459 EHF
File this flight plan on PilotEdge
Remarks: Sample flight plan
Altitude:
(Current/Filed)
8,000ft
Speed:
(Current/Filed)
120kts
Departed: 09-May-18 10:54 AM
Arrived: 09-May-18 12:52 PM
Distance/Time
Traveled:
187nm/1:58
Distance/Time
To Go:
Arrived

Flight Plot

Page will automatically refresh every two minutes.

Flight plan parsing failed; only flown route is shown


Map Options




Map Legend


Flown Route
Filed Route
Departure Airport
Arrival Airport
Navaid (VOR, NDB)
Fix

Horizontal Profiles

Position Reports

Time Latitude Longitude Heading Altitude Ground
Speed
09-May-18 10:39 32.732420 -117.176641 194 22ft 0kts
09-May-18 10:40 32.732420 -117.176641 194 22ft 0kts
09-May-18 10:41 32.732420 -117.176641 194 22ft 0kts
09-May-18 10:42 32.732420 -117.176641 194 22ft 0kts
09-May-18 10:43 32.732420 -117.176641 194 22ft 0kts
09-May-18 10:44 32.732420 -117.176641 194 22ft 0kts
09-May-18 10:45 32.732420 -117.176641 194 22ft 0kts
09-May-18 10:46 32.732420 -117.176641 194 22ft 0kts
09-May-18 10:47 32.732420 -117.176641 194 22ft 0kts
09-May-18 10:48 32.732420 -117.176641 194 22ft 0kts
09-May-18 10:49 32.732420 -117.176641 194 22ft 0kts
09-May-18 10:50 32.732420 -117.176641 194 22ft 0kts
09-May-18 10:51 32.732420 -117.176641 194 22ft 0kts
09-May-18 10:52 32.731087 -117.175654 131 21ft 0kts
09-May-18 10:53 32.731087 -117.175654 131 21ft 0kts
09-May-18 10:54 32.731944 -117.183269 287 108ft 78kts
09-May-18 10:55 32.741097 -117.209005 313 774ft 84kts
09-May-18 10:56 32.758913 -117.224858 319 1528ft 81kts
09-May-18 10:57 32.779010 -117.236861 338 2212ft 82kts
09-May-18 10:58 32.800140 -117.247660 342 2791ft 90kts
09-May-18 10:59 32.825107 -117.255375 341 3290ft 94kts
09-May-18 11:00 32.849911 -117.263916 339 3836ft 89kts
09-May-18 11:01 32.872461 -117.272227 338 4426ft 81kts
09-May-18 11:02 32.893081 -117.280113 337 5014ft 74kts
09-May-18 11:03 32.911870 -117.288304 338 5543ft 73kts
09-May-18 11:04 32.932701 -117.295819 337 5945ft 82kts
09-May-18 11:05 32.955591 -117.307278 336 6050ft 94kts
09-May-18 11:06 32.982181 -117.316103 339 6008ft 103kts
09-May-18 11:07 33.009471 -117.326255 342 6014ft 103kts
09-May-18 11:08 33.037211 -117.335472 341 6017ft 104kts
09-May-18 11:09 33.064429 -117.346895 336 6017ft 104kts
09-May-18 11:10 33.092194 -117.357233 339 6022ft 106kts
09-May-18 11:11 33.120280 -117.367609 330 6022ft 105kts
09-May-18 11:12 33.147003 -117.380394 331 6023ft 107kts
09-May-18 11:13 33.176204 -117.392386 343 6022ft 111kts
09-May-18 11:14 33.205576 -117.402516 335 6024ft 110kts
09-May-18 11:15 33.235141 -117.413244 343 6030ft 112kts
09-May-18 11:16 33.255930 -117.437318 307 5995ft 109kts
09-May-18 11:17 33.277010 -117.462583 310 6026ft 108kts
09-May-18 11:18 33.295537 -117.484397 311 6671ft 87kts
09-May-18 11:19 33.312836 -117.504167 309 7215ft 86kts
09-May-18 11:20 33.329970 -117.523742 310 7730ft 85kts
09-May-18 11:21 33.347461 -117.543755 312 8052ft 96kts
09-May-18 11:22 33.366964 -117.567248 311 8106ft 102kts
09-May-18 11:23 33.389167 -117.590664 313 8091ft 107kts
09-May-18 11:24 33.409508 -117.616365 311 8110ft 106kts
09-May-18 11:25 33.430947 -117.641448 309 8101ft 109kts
09-May-18 11:26 33.452489 -117.666882 312 8105ft 108kts
09-May-18 11:27 33.473238 -117.693591 308 8035ft 111kts
09-May-18 11:28 33.494377 -117.719965 314 8022ft 110kts
09-May-18 11:29 33.516372 -117.745486 316 7993ft 110kts
09-May-18 11:30 33.538552 -117.770715 312 7962ft 110kts
09-May-18 11:31 33.559356 -117.797356 312 8006ft 105kts
09-May-18 11:32 33.580334 -117.821410 318 8082ft 106kts
09-May-18 11:33 33.601789 -117.846151 314 8118ft 108kts
09-May-18 11:34 33.619254 -117.868473 314 8620ft 80kts
09-May-18 11:35 33.634463 -117.885136 313 9050ft 75kts
09-May-18 11:36 33.651427 -117.901209 310 9411ft 76kts
09-May-18 11:37 33.667126 -117.918629 311 9753ft 77kts
09-May-18 11:38 33.683881 -117.937559 311 9948ft 97kts
09-May-18 11:39 33.703860 -117.960692 309 10059ft 100kts
09-May-18 11:40 33.723689 -117.985935 311 10052ft 104kts
09-May-18 11:41 33.745477 -118.009501 308 10050ft 106kts
09-May-18 11:42 33.766697 -118.034371 313 10043ft 106kts
09-May-18 11:43 33.788860 -118.058231 307 10008ft 106kts
09-May-18 11:44 33.807481 -118.085470 318 9982ft 107kts
09-May-18 11:45 33.833774 -118.102744 330 9980ft 106kts
09-May-18 11:46 33.860533 -118.116910 329 10036ft 105kts
09-May-18 11:47 33.887132 -118.131565 333 10048ft 106kts
09-May-18 11:48 33.913794 -118.146543 331 10061ft 105kts
09-May-18 11:49 33.940595 -118.161101 329 10066ft 105kts
09-May-18 11:50 33.967226 -118.176222 334 10075ft 106kts
09-May-18 11:51 33.994034 -118.191033 330 10080ft 106kts
09-May-18 11:52 34.021275 -118.205778 332 10031ft 108kts
09-May-18 11:53 34.049089 -118.219688 329 9992ft 109kts
09-May-18 11:54 34.076831 -118.234273 332 9961ft 108kts
09-May-18 11:55 34.103987 -118.249627 331 9921ft 108kts
09-May-18 11:56 34.130703 -118.264983 331 9952ft 105kts
09-May-18 11:57 34.156273 -118.281723 329 9962ft 106kts
09-May-18 11:58 34.182591 -118.297432 330 10001ft 104kts
09-May-18 11:59 34.207658 -118.311797 333 10092ft 102kts
09-May-18 12:00 34.233784 -118.326309 325 10106ft 104kts
09-May-18 12:01 34.259392 -118.343496 329 10088ft 106kts
09-May-18 12:02 34.285080 -118.361436 330 10049ft 107kts
09-May-18 12:03 34.312486 -118.375771 330 10019ft 107kts
09-May-18 12:04 34.339741 -118.390789 333 9994ft 107kts
09-May-18 12:05 34.365407 -118.408994 328 9955ft 107kts
09-May-18 12:06 34.391456 -118.424823 325 10041ft 100kts
09-May-18 12:07 34.416550 -118.440780 329 10098ft 102kts
09-May-18 12:08 34.442815 -118.454552 332 10133ft 103kts
09-May-18 12:09 34.468995 -118.470429 332 10110ft 106kts
09-May-18 12:10 34.495084 -118.487038 330 10093ft 106kts
09-May-18 12:11 34.522171 -118.501457 335 10077ft 106kts
09-May-18 12:12 34.548953 -118.516703 328 10062ft 106kts
09-May-18 12:13 34.574846 -118.533556 331 10049ft 106kts
09-May-18 12:14 34.601224 -118.549554 327 10033ft 106kts
09-May-18 12:15 34.626958 -118.567177 329 10011ft 106kts
09-May-18 12:16 34.653627 -118.582537 330 9984ft 106kts
09-May-18 12:17 34.679989 -118.598665 330 9960ft 106kts
09-May-18 12:18 34.705586 -118.614293 329 10035ft 100kts
09-May-18 12:19 34.731626 -118.628482 330 10043ft 102kts
09-May-18 12:20 34.757461 -118.642360 329 10095ft 100kts
09-May-18 12:21 34.781987 -118.657127 327 10180ft 100kts
09-May-18 12:22 34.806406 -118.673133 323 10220ft 103kts
09-May-18 12:23 34.831342 -118.690036 325 10239ft 102kts
09-May-18 12:24 34.855637 -118.707880 322 10263ft 102kts
09-May-18 12:25 34.881494 -118.723197 325 10261ft 103kts
09-May-18 12:26 34.907170 -118.738725 328 10136ft 104kts
09-May-18 12:27 34.933727 -118.753141 329 9607ft 103kts
09-May-18 12:28 34.959402 -118.766864 331 9165ft 98kts
09-May-18 12:29 34.984141 -118.779109 321 9239ft 94kts
09-May-18 12:30 35.006283 -118.796469 321 9047ft 96kts
09-May-18 12:31 35.032694 -118.805996 353 8560ft 111kts
09-May-18 12:32 35.063201 -118.806114 349 8046ft 108kts
09-May-18 12:33 35.091370 -118.807518 350 7222ft 99kts
09-May-18 12:34 35.115363 -118.816067 313 6425ft 90kts
09-May-18 12:35 35.132904 -118.837968 312 5766ft 90kts
09-May-18 12:36 35.155950 -118.848354 341 5283ft 89kts
09-May-18 12:37 35.180587 -118.854255 345 5066ft 86kts
09-May-18 12:38 35.203358 -118.859920 343 4991ft 83kts
09-May-18 12:39 35.225326 -118.865154 340 4954ft 83kts
09-May-18 12:40 35.249578 -118.870753 343 4449ft 90kts
09-May-18 12:41 35.273511 -118.879361 332 3998ft 88kts
09-May-18 12:42 35.294823 -118.894650 327 3544ft 89kts
09-May-18 12:43 35.314253 -118.912882 320 3120ft 88kts
09-May-18 12:44 35.332164 -118.933636 312 2960ft 88kts
09-May-18 12:45 35.350965 -118.956259 316 2702ft 99kts
09-May-18 12:46 35.369484 -118.978277 315 2213ft 87kts
09-May-18 12:47 35.384261 -118.996412 314 1904ft 68kts
09-May-18 12:48 35.397258 -119.012330 316 1515ft 60kts
09-May-18 12:49 35.409304 -119.026547 315 1143ft 60kts
09-May-18 12:50 35.421298 -119.041120 316 799ft 61kts
09-May-18 12:51 35.432942 -119.055158 314 502ft 58kts
09-May-18 12:52 35.440135 -119.062771 352 497ft 0kts
09-May-18 12:53 35.438655 -119.059773 134 497ft 23kts
09-May-18 12:54 35.437111 -119.055953 135 498ft 13kts
09-May-18 12:55 35.436610 -119.054397 313 500ft 0kts

Navigation Log

Ident Type
Flight plan parsing failed, navigation log unavailable